Time;durP1;ratioP1;P1;durP2;ratioP2;P2;SDS_P1;SDS_P2;PMS_P1;PMS_P2;Temp;Humidity;BMP_temperature;BMP_pressure;BME280_temperature;BME280_humidity;BME280_pressure;Samples;Min_cycle;Max_cycle;Signal;HPM_P1;HPM_P2
2022/12/26 00:00:24;;;;;;;0.90;0.90;;;;;;;9.38;73.30;96876.59;29394;235;64013;-70
2022/12/26 00:01:04;;;;;;;0.60;0.60;;;;;;;9.40;73.07;96873.63;29394;233;64008;-59
2022/12/26 00:01:37;;;;;;;0.60;0.60;;;;;;;9.43;72.95;96877.66;29395;279;63013;-57
2022/12/26 00:02:09;;;;;;;0.62;0.62;;;;;;;9.44;72.86;96873.84;29395;222;63016;-73
2022/12/26 00:02:40;;;;;;;0.50;0.50;;;;;;;9.39;73.21;96872.00;29395;243;63009;-65
2022/12/26 00:03:12;;;;;;;0.50;0.50;;;;;;;9.39;73.52;96872.81;29395;202;63005;-74
2022/12/26 00:03:43;;;;;;;0.50;0.50;;;;;;;9.35;73.51;96868.28;29395;231;63009;-63
2022/12/26 00:04:16;;;;;;;0.50;0.50;;;;;;;9.33;73.27;96868.56;29395;197;63005;-60
2022/12/26 00:04:47;;;;;;;0.60;0.60;;;;;;;9.34;73.25;96864.75;29395;209;63009;-60
2022/12/26 00:05:19;;;;;;;0.50;0.50;;;;;;;9.38;73.61;96865.78;29395;196;63004;-62
2022/12/26 00:05:50;;;;;;;1.00;1.00;;;;;;;9.38;73.45;96867.66;29394;198;64013;-60
2022/12/26 00:06:26;;;;;;;0.93;0.70;;;;;;;9.38;73.47;96868.47;29395;269;63004;-60
2022/12/26 00:06:57;;;;;;;0.50;0.50;;;;;;;9.34;73.15;96875.59;29395;214;63009;-64
2022/12/26 00:07:28;;;;;;;0.60;0.60;;;;;;;9.34;73.76;96867.47;29394;216;64009;-75
2022/12/26 00:07:59;;;;;;;0.50;0.50;;;;;;;9.33;73.44;96868.56;29395;232;63008;-68
2022/12/26 00:08:31;;;;;;;0.57;0.57;;;;;;;9.31;73.42;96859.91;29395;232;63004;-61
2022/12/26 00:09:05;;;;;;;0.50;0.50;;;;;;;9.29;73.51;96867.50;29395;248;63009;-61
2022/12/26 00:09:36;;;;;;;0.50;0.50;;;;;;;9.28;73.49;96863.19;29395;229;63005;-60
2022/12/26 00:10:07;;;;;;;0.60;0.60;;;;;;;9.27;73.62;96858.84;29394;200;64014;-62
2022/12/26 00:10:39;;;;;;;0.50;0.50;;;;;;;9.31;73.75;96859.91;29395;261;63005;-60
2022/12/26 00:11:11;;;;;;;0.65;0.65;;;;;;;9.29;73.57;96867.50;29395;238;63009;-70
2022/12/26 00:11:43;;;;;;;0.50;0.50;;;;;;;9.26;73.92;96861.84;29395;245;63005;-60
2022/12/26 00:12:14;;;;;;;0.50;0.50;;;;;;;9.25;73.65;96855.63;29395;217;63009;-61
2022/12/26 00:12:46;;;;;;;0.50;0.50;;;;;;;9.25;73.94;96861.03;29395;222;63004;-67
2022/12/26 00:13:17;;;;;;;0.57;0.57;;;;;;;9.25;73.74;96861.03;29395;245;63009;-64
2022/12/26 00:13:54;;;;;;;0.50;0.50;;;;;;;9.22;73.97;96867.03;29395;224;63004;-62
2022/12/26 00:14:25;;;;;;;0.60;0.60;;;;;;;9.20;73.99;96863.78;29395;240;63009;-59
2022/12/26 00:14:56;;;;;;;0.65;0.65;;;;;;;9.22;74.25;96863.50;29395;213;63004;-61
2022/12/26 00:15:28;;;;;;;0.50;0.50;;;;;;;9.22;74.08;96861.59;29394;204;64013;-73
2022/12/26 00:15:59;;;;;;;0.60;0.60;;;;;;;9.24;74.00;96858.63;29395;241;63010;-60
2022/12/26 00:16:32;;;;;;;0.50;0.50;;;;;;;9.24;73.63;96864.84;29395;202;63009;-61
2022/12/26 00:17:04;;;;;;;0.50;0.50;;;;;;;9.22;73.90;96861.59;29395;200;63005;-61
2022/12/26 00:17:35;;;;;;;0.70;0.70;;;;;;;9.22;73.99;96855.38;29395;263;63009;-59
2022/12/26 00:18:07;;;;;;;0.50;0.50;;;;;;;9.21;74.16;96861.91;29395;227;63005;-61
2022/12/26 00:18:39;;;;;;;0.50;0.50;;;;;;;9.18;73.75;96860.56;29395;213;63009;-69
2022/12/26 00:19:10;;;;;;;0.50;0.50;;;;;;;9.10;74.47;96861.16;29395;227;63005;-69
2022/12/26 00:19:42;;;;;;;2.00;1.83;;;;;;;9.08;74.51;96858.75;29395;259;63009;-59
2022/12/26 00:20:13;;;;;;;0.50;0.50;;;;;;;9.08;74.29;96855.22;29395;204;63005;-73
2022/12/26 00:20:45;;;;;;;0.50;0.50;;;;;;;9.10;74.55;96860.34;29394;298;64013;-59
2022/12/26 00:21:17;;;;;;;0.50;0.50;;;;;;;9.07;74.84;96854.41;29395;219;63004;-61
2022/12/26 00:21:49;;;;;;;2.80;2.60;;;;;;;9.08;74.75;96860.63;29394;223;64013;-61
2022/12/26 00:22:20;;;;;;;0.50;0.50;;;;;;;9.10;74.55;96858.47;29395;228;63004;-61
2022/12/26 00:22:51;;;;;;;0.50;0.50;;;;;;;9.13;74.18;96863.31;29395;214;63008;-68
2022/12/26 00:23:22;;;;;;;3.40;0.77;;;;;;;9.16;74.22;96873.56;29395;230;63004;-70
2022/12/26 00:23:56;;;;;;;0.50;0.50;;;;;;;9.13;74.19;96866.00;29395;227;63009;-59
2022/12/26 00:24:27;;;;;;;0.52;0.52;;;;;;;9.14;74.51;96867.63;29395;254;63005;-69
2022/12/26 00:24:59;;;;;;;0.50;0.50;;;;;;;9.13;74.42;96868.72;29395;255;63009;-63
2022/12/26 00:25:33;;;;;;;0.60;0.60;;;;;;;9.08;74.51;96866.88;29395;196;63005;-66
2022/12/26 00:26:16;;;;;;;0.60;0.60;;;;;;;9.10;74.80;96863.88;29395;244;63009;-71
2022/12/26 00:26:47;;;;;;;0.50;0.50;;;;;;;9.11;74.61;96861.97;29394;225;64009;-62
2022/12/26 00:27:18;;;;;;;0.62;0.62;;;;;;;9.14;74.54;96866.81;29395;237;63009;-69
2022/12/26 00:27:50;;;;;;;0.50;0.50;;;;;;;9.10;74.56;96866.59;29395;197;63004;-62
2022/12/26 00:28:22;;;;;;;0.70;0.70;;;;;;;9.08;74.38;96868.75;29395;354;63009;-66
2022/12/26 00:28:54;;;;;;;0.80;0.80;;;;;;;9.05;74.75;96861.22;29395;209;63013;-69
2022/12/26 00:29:25;;;;;;;0.50;0.50;;;;;;;9.06;74.72;96876.34;29394;246;64013;-61
2022/12/26 00:29:56;;;;;;;0.50;0.50;;;;;;;9.07;74.85;96867.16;29395;250;63004;-61
2022/12/26 00:30:28;;;;;;;0.50;0.50;;;;;;;9.09;74.49;96870.38;29395;206;63008;-60
2022/12/26 00:31:03;;;;;;;0.60;0.60;;;;;;;9.08;74.97;96866.06;29395;203;63004;-59
2022/12/26 00:31:35;;;;;;;0.50;0.50;;;;;;;9.06;74.76;96876.34;29395;244;63009;-60
2022/12/26 00:32:06;;;;;;;0.50;0.50;;;;;;;9.05;75.02;96877.44;29395;221;63005;-68
2022/12/26 00:32:38;;;;;;;0.60;0.60;;;;;;;9.07;74.87;96869.84;29395;211;63009;-67
2022/12/26 00:33:09;;;;;;;0.60;0.60;;;;;;;9.10;74.67;96863.88;29394;228;64009;-62
2022/12/26 00:33:41;;;;;;;0.68;0.68;;;;;;;9.11;74.50;96870.91;29395;227;63009;-60
2022/12/26 00:34:12;;;;;;;0.50;0.50;;;;;;;9.08;74.74;96882.28;29395;214;63005;-67
2022/12/26 00:34:43;;;;;;;0.50;0.50;;;;;;;9.07;74.59;96870.66;29395;236;63015;-68
2022/12/26 00:35:15;;;;;;;0.50;0.50;;;;;;;9.06;74.99;96879.06;29395;323;63004;-72
2022/12/26 00:35:46;;;;;;;0.60;0.60;;;;;;;9.03;75.02;96876.91;29394;218;64013;-61
2022/12/26 00:36:23;;;;;;;0.50;0.50;;;;;;;9.06;74.79;96870.94;29394;220;64009;-61
2022/12/26 00:36:54;;;;;;;1.00;0.77;;;;;;;9.05;74.92;96872.03;29395;236;63026;-61
2022/12/26 00:37:25;;;;;;;0.50;0.50;;;;;;;9.05;75.12;96882.84;29395;255;63004;-61
2022/12/26 00:37:57;;;;;;;0.50;0.50;;;;;;;9.03;74.91;96876.91;29395;248;63009;-71
2022/12/26 00:38:29;;;;;;;0.88;0.88;;;;;;;9.03;75.27;96874.22;29395;216;63005;-77
2022/12/26 00:39:01;;;;;;;0.50;0.50;;;;;;;9.00;75.18;96880.22;29395;202;63014;-60
2022/12/26 00:39:32;;;;;;;0.50;0.50;;;;;;;9.01;75.34;96879.09;29395;214;63005;-69
2022/12/26 00:40:06;;;;;;;0.50;0.50;;;;;;;9.01;75.03;96884.50;29395;225;63009;-61
2022/12/26 00:40:42;;;;;;;0.50;0.50;;;;;;;8.99;75.42;96884.81;29395;232;63005;-64
2022/12/26 00:41:15;;;;;;;0.50;0.50;;;;;;;8.99;75.09;96874.00;29394;234;64013;-60
2022/12/26 00:41:46;;;;;;;0.60;0.60;;;;;;;8.99;75.35;96870.47;29395;213;63005;-69
2022/12/26 00:42:17;;;;;;;0.60;0.60;;;;;;;8.99;75.28;96881.31;29395;196;63009;-61
2022/12/26 00:42:48;;;;;;;0.80;0.80;;;;;;;9.02;75.32;96878.00;29395;218;63004;-61
2022/12/26 00:43:19;;;;;;;0.60;0.60;;;;;;;8.99;75.55;96876.69;29395;224;63009;-61
2022/12/26 00:43:52;;;;;;;0.50;0.50;;;;;;;8.96;75.36;96874.56;29395;220;63004;-60
2022/12/26 00:44:23;;;;;;;0.60;0.60;;;;;;;8.96;75.45;96869.16;29395;208;63009;-60
2022/12/26 00:44:54;;;;;;;0.50;0.50;;;;;;;9.00;75.42;96875.63;29395;214;63004;-61
2022/12/26 00:45:26;;;;;;;0.50;0.50;;;;;;;9.01;75.08;96870.97;29394;257;64013;-60
2022/12/26 00:45:57;;;;;;;0.50;0.50;;;;;;;8.99;75.62;96873.19;29395;229;63005;-60
2022/12/26 00:46:29;;;;;;;0.50;0.50;;;;;;;8.99;75.60;96873.19;29394;211;64014;-61
2022/12/26 00:47:00;;;;;;;0.50;0.50;;;;;;;9.03;75.21;96869.59;29395;227;63005;-59
2022/12/26 00:47:31;;;;;;;0.50;0.50;;;;;;;9.05;75.08;96867.44;29395;233;63009;-61
2022/12/26 00:48:03;;;;;;;0.50;0.50;;;;;;;9.04;75.45;96876.63;29395;244;63005;-63
2022/12/26 00:48:34;;;;;;;0.50;0.50;;;;;;;9.03;75.46;96874.22;29395;206;63008;-61
2022/12/26 00:49:05;;;;;;;0.50;0.50;;;;;;;9.04;75.10;96884.75;29395;387;63005;-60
2022/12/26 00:49:37;;;;;;;0.50;0.50;;;;;;;9.07;75.26;96875.25;29394;197;64013;-60
2022/12/26 00:50:09;;;;;;;0.50;0.50;;;;;;;9.06;74.72;96874.44;29394;248;64004;-61
2022/12/26 00:50:41;;;;;;;0.60;0.60;;;;;;;9.03;74.96;96874.22;29395;243;63009;-58
2022/12/26 00:51:13;;;;;;;0.80;0.80;;;;;;;9.00;75.48;96870.19;29394;232;64009;-61
2022/12/26 00:51:44;;;;;;;0.60;0.60;;;;;;;9.01;75.00;96870.97;29394;273;64013;-62
2022/12/26 00:52:16;;;;;;;0.90;0.90;;;;;;;9.01;75.14;96873.69;29395;214;63004;-61
2022/12/26 00:52:47;;;;;;;0.88;0.88;;;;;;;9.02;75.00;96867.19;29395;215;63008;-62
2022/12/26 00:53:23;;;;;;;0.50;0.50;;;;;;;8.96;75.20;96876.47;29394;219;64009;-61
2022/12/26 00:53:54;;;;;;;0.50;0.50;;;;;;;8.97;75.34;96869.97;29395;209;63012;-61
2022/12/26 00:54:25;;;;;;;0.50;0.50;;;;;;;8.99;75.35;96862.38;29395;202;63005;-61
2022/12/26 00:54:57;;;;;;;0.50;0.50;;;;;;;8.98;75.06;96863.44;29395;240;63009;-61
2022/12/26 00:55:28;;;;;;;0.50;0.50;;;;;;;9.00;75.66;96869.41;29395;280;63005;-61
2022/12/26 00:55:59;;;;;;;0.50;0.50;;;;;;;9.02;75.20;96868.00;29395;199;63027;-61
2022/12/26 00:56:31;;;;;;;0.50;0.50;;;;;;;9.00;75.51;96872.09;29395;196;63005;-60
2022/12/26 00:57:02;;;;;;;0.60;0.60;;;;;;;8.99;75.43;96867.78;29395;222;63009;-61
2022/12/26 00:57:34;;;;;;;0.50;0.50;;;;;;;8.97;75.49;96869.97;29394;279;64009;-62
2022/12/26 00:58:05;;;;;;;0.55;0.55;;;;;;;9.00;75.31;96872.09;29395;218;63027;-60
2022/12/26 00:58:37;;;;;;;0.50;0.50;;;;;;;9.02;75.49;96878.00;29395;198;63004;-62
2022/12/26 00:59:08;;;;;;;0.60;0.60;;;;;;;8.97;75.26;96869.97;29395;199;63009;-62
2022/12/26 00:59:40;;;;;;;0.50;0.50;;;;;;;8.98;75.64;96874.28;29395;211;63004;-60
2022/12/26 01:00:12;;;;;;;0.50;0.50;;;;;;;8.99;75.32;96879.41;29395;218;63008;-59
2022/12/26 01:00:44;;;;;;;0.80;0.80;;;;;;;9.00;75.41;96878.31;29395;235;63011;-59
2022/12/26 01:01:19;;;;;;;0.50;0.50;;;;;;;8.98;75.61;96877.78;29395;197;63016;-62
2022/12/26 01:01:51;;;;;;;0.60;0.60;;;;;;;9.01;75.50;96881.81;29395;270;63005;-57
2022/12/26 01:02:37;;;;;;;0.50;0.50;;;;;;;8.99;75.19;96875.91;29394;225;64013;-62
2022/12/26 01:03:10;;;;;;;0.52;0.52;;;;;;;8.96;75.83;96873.75;29395;302;63005;-65
2022/12/26 01:03:43;;;;;;;0.50;0.50;;;;;;;9.00;75.25;96874.81;29395;257;63027;-60
2022/12/26 01:04:14;;;;;;;0.88;0.68;;;;;;;9.04;75.47;96875.81;29395;278;63006;-60
2022/12/26 01:04:45;;;;;;;0.50;0.50;;;;;;;9.07;75.15;96869.84;29395;232;63004;-60
2022/12/26 01:05:19;;;;;;;1.15;1.12;;;;;;;9.09;75.04;96870.38;29395;207;63004;-68
2022/12/26 01:05:51;;;;;;;0.50;0.50;;;;;;;9.12;74.80;96875.22;29395;226;63009;-62
2022/12/26 01:06:22;;;;;;;0.60;0.60;;;;;;;9.10;75.00;96880.12;29395;323;63004;-71
2022/12/26 01:06:53;;;;;;;0.50;0.50;;;;;;;9.08;75.19;96880.41;29395;202;63009;-60
2022/12/26 01:07:25;;;;;;;0.50;0.50;;;;;;;9.08;75.23;96871.47;29394;198;64008;-60
2022/12/26 01:07:56;;;;;;;0.50;0.50;;;;;;;9.06;74.91;96865.53;29395;246;63008;-60
2022/12/26 01:08:27;;;;;;;0.60;0.60;;;;;;;9.08;75.23;96866.06;29395;221;63005;-59
2022/12/26 01:08:58;;;;;;;0.98;0.98;;;;;;;9.12;74.73;96867.09;29395;199;63009;-73
2022/12/26 01:09:30;;;;;;;0.50;0.50;;;;;;;9.13;74.96;96860.59;29395;197;63005;-60
2022/12/26 01:10:05;;;;;;;0.50;0.50;;;;;;;9.14;74.85;96870.34;29395;218;63009;-60
2022/12/26 01:10:45;;;;;;;0.50;0.50;;;;;;;9.16;74.87;96867.34;29395;269;63005;-62
2022/12/26 01:11:38;;;;;;;0.50;0.50;;;;;;;9.18;74.33;96863.25;29395;231;63009;-61
2022/12/26 01:12:08;;;;;;;0.50;0.50;;;;;;;9.18;74.36;96865.16;29395;197;63005;-62
2022/12/26 01:12:39;;;;;;;0.50;0.50;;;;;;;9.16;74.41;96861.94;29394;202;64013;-69
2022/12/26 01:13:11;;;;;;;0.50;0.50;;;;;;;9.15;74.69;96868.44;29395;197;63004;-60
2022/12/26 01:13:42;;;;;;;0.50;0.50;;;;;;;9.14;74.55;96866.81;29395;225;63009;-62
2022/12/26 01:14:16;;;;;;;0.90;0.90;;;;;;;9.12;74.54;96872.53;29395;212;63004;-61
2022/12/26 01:14:48;;;;;;;0.50;0.50;;;;;;;9.12;74.82;96871.72;29395;220;63009;-64
2022/12/26 01:15:19;;;;;;;0.50;0.50;;;;;;;9.08;74.76;96864.16;29395;214;63004;-60
2022/12/26 01:15:52;;;;;;;0.50;0.50;;;;;;;9.08;74.85;96871.47;29395;219;63009;-69
2022/12/26 01:16:23;;;;;;;0.52;0.52;;;;;;;9.08;74.99;96861.44;29395;221;63011;-60
2022/12/26 01:16:55;;;;;;;0.60;0.60;;;;;;;9.07;74.84;96872.56;29395;306;63009;-66
2022/12/26 01:17:27;;;;;;;0.50;0.50;;;;;;;9.09;75.18;96867.66;29395;229;63005;-62
2022/12/26 01:17:59;;;;;;;0.50;0.50;;;;;;;9.08;75.04;96871.47;29394;223;64006;-63
2022/12/26 01:18:31;;;;;;;0.50;0.50;;;;;;;9.04;75.30;96875.81;29395;211;63005;-59
2022/12/26 01:19:03;;;;;;;0.50;0.50;;;;;;;9.03;75.13;96869.59;29395;210;63009;-62
2022/12/26 01:19:34;;;;;;;0.50;0.50;;;;;;;9.05;75.39;96877.44;29395;267;63005;-59
2022/12/26 01:20:06;;;;;;;0.50;0.50;;;;;;;9.02;75.23;96873.41;29395;217;63009;-70
2022/12/26 01:20:37;;;;;;;0.50;0.50;;;;;;;9.00;75.55;96874.81;29395;197;63004;-62
2022/12/26 01:21:10;;;;;;;0.50;0.50;;;;;;;8.99;75.63;96867.78;29395;203;63004;-62
2022/12/26 01:21:41;;;;;;;0.50;0.50;;;;;;;9.01;75.54;96868.28;29395;232;63007;-61
2022/12/26 01:22:13;;;;;;;0.50;0.50;;;;;;;9.03;75.50;96868.78;29395;298;63023;-60
2022/12/26 01:22:44;;;;;;;0.50;0.50;;;;;;;9.06;75.45;96879.06;29395;199;63004;-60
2022/12/26 01:23:16;;;;;;;0.50;0.50;;;;;;;9.06;75.27;96873.66;29394;210;64014;-60
2022/12/26 01:23:47;;;;;;;0.57;0.57;;;;;;;9.03;75.47;96876.91;29395;221;63005;-62
2022/12/26 01:24:19;;;;;;;0.50;0.50;;;;;;;9.03;75.47;96879.62;29395;252;63009;-62
2022/12/26 01:24:54;;;;;;;0.50;0.50;;;;;;;9.02;75.40;96873.41;29395;384;63005;-60
2022/12/26 01:25:25;;;;;;;0.50;0.50;;;;;;;9.02;75.13;96883.41;29395;270;63009;-62
2022/12/26 01:25:57;;;;;;;0.62;0.62;;;;;;;9.04;75.27;96878.53;29395;269;63005;-61
2022/12/26 01:26:28;;;;;;;0.50;0.50;;;;;;;9.04;75.01;96881.25;29395;268;63009;-58
2022/12/26 01:26:59;;;;;;;0.50;0.50;;;;;;;9.03;75.41;96879.62;29395;256;63005;-62
2022/12/26 01:27:30;;;;;;;0.50;0.50;;;;;;;9.03;75.02;96875.03;29394;244;64013;-59
2022/12/26 01:28:02;;;;;;;0.50;0.50;;;;;;;9.04;75.52;96876.63;29395;218;63004;-62
2022/12/26 01:28:33;;;;;;;0.55;0.55;;;;;;;9.06;75.27;96881.78;29395;218;63009;-64
2022/12/26 01:29:04;;;;;;;0.50;0.50;;;;;;;9.11;75.03;96872.81;29395;198;63010;-59
2022/12/26 01:29:35;;;;;;;0.50;0.50;;;;;;;9.11;74.93;96870.09;29394;209;64009;-59
2022/12/26 01:30:08;;;;;;;0.60;0.60;;;;;;;9.11;75.01;96876.31;29395;215;63004;-61
2022/12/26 01:30:39;;;;;;;0.50;0.50;;;;;;;9.06;75.15;96874.44;29395;251;63008;-62
2022/12/26 01:31:10;;;;;;;0.60;0.60;;;;;;;9.04;75.35;96881.25;29395;253;63011;-61
2022/12/26 01:31:41;;;;;;;0.50;0.50;;;;;;;9.05;75.07;96877.44;29395;216;63009;-60
2022/12/26 01:32:13;;;;;;;0.50;0.50;;;;;;;9.03;75.45;96874.22;29395;226;63005;-59
2022/12/26 01:32:44;;;;;;;0.60;0.60;;;;;;;9.02;75.13;96878.81;29394;255;64013;-60
2022/12/26 01:33:16;;;;;;;0.50;0.50;;;;;;;9.05;75.35;96867.44;29395;199;63005;-59
2022/12/26 01:33:47;;;;;;;0.50;0.50;;;;;;;9.06;75.08;96868.22;29395;235;63016;-62
2022/12/26 01:34:18;;;;;;;0.50;0.50;;;;;;;9.09;75.34;96875.78;29395;202;63000;-59
2022/12/26 01:34:51;;;;;;;0.85;0.85;;;;;;;9.07;74.91;96875.25;29394;225;64013;-59
2022/12/26 01:35:23;;;;;;;3.30;1.45;;;;;;;9.07;74.97;96878.78;29395;224;63004;-60
2022/12/26 01:35:54;;;;;;;0.50;0.50;;;;;;;9.08;75.16;96877.69;29395;213;63009;-62
2022/12/26 01:36:26;;;;;;;0.60;0.60;;;;;;;9.12;75.17;96877.13;29395;211;63004;-59
2022/12/26 01:36:57;;;;;;;0.50;0.50;;;;;;;9.12;74.91;96883.34;29394;222;64013;-60
2022/12/26 01:37:28;;;;;;;0.50;0.50;;;;;;;9.10;75.09;96872.00;29395;227;63003;-60
2022/12/26 01:38:00;;;;;;;0.50;0.50;;;;;;;9.06;74.93;96876.34;29395;226;63008;-60
2022/12/26 01:38:31;;;;;;;0.50;0.50;;;;;;;9.07;75.08;96880.69;29394;198;64009;-62
2022/12/26 01:39:02;;;;;;;0.77;0.77;;;;;;;9.10;75.17;96888.22;29395;236;63009;-58
2022/12/26 01:39:34;;;;;;;0.52;0.52;;;;;;;9.08;75.42;96887.72;29395;245;63005;-60
2022/12/26 01:40:07;;;;;;;0.50;0.50;;;;;;;9.09;75.28;96883.91;29395;204;63009;-59
2022/12/26 01:40:42;;;;;;;0.52;0.52;;;;;;;9.09;75.31;96883.91;29395;206;63005;-60
2022/12/26 01:41:15;;;;;;;0.50;0.50;;;;;;;9.09;75.20;96883.91;29395;219;63009;-63
2022/12/26 01:41:47;;;;;;;0.50;0.50;;;;;;;9.10;75.24;96885.53;29394;202;64009;-68
2022/12/26 01:42:22;;;;;;;0.50;0.50;;;;;;;9.10;74.85;96885.53;29395;218;63009;-63
2022/12/26 01:42:53;;;;;;;0.60;0.60;;;;;;;9.09;75.18;96886.63;29395;253;63004;-62
2022/12/26 01:43:25;;;;;;;0.50;0.50;;;;;;;9.10;74.85;96885.53;29395;278;63009;-60
2022/12/26 01:43:59;;;;;;;0.50;0.50;;;;;;;9.09;75.11;96889.31;29395;203;63004;-60
2022/12/26 01:45:21;;;;;;;0.50;0.50;;;;;;;9.14;75.13;96886.59;29395;205;63008;-62
2022/12/26 01:45:52;;;;;;;0.60;0.60;;;;;;;9.21;74.46;96884.34;29394;270;64014;-60
2022/12/26 01:46:31;;;;;;;0.50;0.50;;;;;;;9.18;74.57;96884.94;29395;203;63005;-58
2022/12/26 01:47:02;;;;;;;0.60;0.60;;;;;;;9.20;74.73;96885.44;29395;202;63009;-61
2022/12/26 01:47:46;;;;;;;0.50;0.50;;;;;;;9.14;74.84;96881.16;29395;212;63005;-60
2022/12/26 01:48:32;;;;;;;0.60;0.60;;;;;;;9.11;75.19;96881.72;29394;263;64013;-59
2022/12/26 01:49:16;;;;;;;0.50;0.50;;;;;;;9.10;75.00;96880.12;29395;197;63005;-61
2022/12/26 01:49:52;;;;;;;0.50;0.50;;;;;;;9.10;74.91;96884.72;29394;202;64013;-59
2022/12/26 01:50:33;;;;;;;0.60;0.60;;;;;;;9.06;74.94;96884.47;29395;205;63004;-59
2022/12/26 01:51:05;;;;;;;;;;;;;;;9.10;75.09;96877.41;29996;983;6004;-60
2022/12/26 01:51:40;;;;;;;0.50;0.50;;;;;;;9.10;74.99;96890.94;29400;243;63009;-61
2022/12/26 01:52:18;;;;;;;0.60;0.60;;;;;;;9.07;75.15;96892.31;29395;292;63004;-58
2022/12/26 01:52:50;;;;;;;0.82;0.82;;;;;;;9.04;75.34;96892.88;29395;256;63009;-58
2022/12/26 01:53:29;;;;;;;0.50;0.50;;;;;;;9.02;75.57;96888.84;29395;220;63005;-59
2022/12/26 01:54:03;;;;;;;0.77;0.77;;;;;;;9.06;75.27;96892.59;29394;205;64014;-62
2022/12/26 01:54:37;;;;;;;0.50;0.50;;;;;;;9.06;75.51;96906.13;29395;212;63005;-60
2022/12/26 01:55:13;;;;;;;0.50;0.50;;;;;;;9.07;75.09;96902.31;29395;215;63009;-62
2022/12/26 01:55:52;;;;;;;0.70;0.70;;;;;;;9.06;75.52;96900.72;29394;219;64009;-68
2022/12/26 01:56:33;;;;;;;0.60;0.60;;;;;;;9.04;75.48;96892.06;29395;241;63009;-59
2022/12/26 01:57:09;;;;;;;0.68;0.68;;;;;;;9.03;75.38;96890.44;29417;204;63004;-60
2022/12/26 01:57:49;;;;;;;0.75;0.75;;;;;;;9.02;75.48;96899.66;29395;226;63009;-57
2022/12/26 01:58:29;;;;;;;0.60;0.60;;;;;;;9.03;75.58;96890.44;29439;246;63004;-62
2022/12/26 01:59:16;;;;;;;0.70;0.70;;;;;;;9.10;75.09;96895.53;29395;208;63009;-61
2022/12/26 01:59:50;;;;;;;0.50;0.50;;;;;;;9.13;75.09;96895.78;29395;226;63004;-61
2022/12/26 02:00:22;;;;;;;8.90;1.75;;;;;;;9.11;75.21;96881.72;29394;200;64005;-61
2022/12/26 02:00:54;;;;;;;0.50;0.50;;;;;;;9.11;75.03;96889.84;29394;219;64009;-60
2022/12/26 02:01:30;;;;;;;0.52;0.52;;;;;;;9.00;75.42;96893.75;29395;247;63009;-60
2022/12/26 02:02:03;;;;;;;0.50;0.50;;;;;;;8.99;75.67;96892.94;29394;219;64009;-59
2022/12/26 02:05:32;;;;;;;0.60;0.60;;;;;;;9.00;75.64;96896.47;29395;220;63009;-60
2022/12/26 02:05:34;;;;;;;0.60;0.60;;;;;;;9.02;75.67;96894.25;29394;214;64009;-58
2022/12/26 02:06:08;;;;;;;0.50;0.50;;;;;;;9.07;75.45;96891.50;29395;242;63009;-61
2022/12/26 02:06:40;;;;;;;0.80;0.80;;;;;;;9.09;75.50;96889.31;29395;198;63004;-60
2022/12/26 02:07:12;;;;;;;0.50;0.50;;;;;;;9.08;75.21;96887.72;29395;220;63008;-60
2022/12/26 02:07:45;;;;;;;0.62;0.60;;;;;;;9.11;75.49;96892.56;29395;213;63005;-59
2022/12/26 02:08:25;;;;;;;0.50;0.50;;;;;;;9.11;75.54;96881.72;29395;274;63015;-61
2022/12/26 02:08:58;;;;;;;0.50;0.50;;;;;;;9.10;75.17;96879.31;29394;269;64009;-60
2022/12/26 02:09:31;;;;;;;0.50;0.50;;;;;;;9.08;75.41;96887.72;29395;254;63009;-61
2022/12/26 02:10:02;;;;;;;0.60;0.60;;;;;;;9.05;75.56;96885.56;29395;277;63005;-60
2022/12/26 02:10:46;;;;;;;0.73;0.73;;;;;;;9.02;75.46;96884.22;29395;248;63009;-60
2022/12/26 02:11:39;;;;;;;0.52;0.52;;;;;;;9.06;75.75;96882.56;29395;211;63005;-63
2022/12/26 02:12:19;;;;;;;0.50;0.50;;;;;;;9.12;75.09;96879.84;29395;254;63009;-61
2022/12/26 02:12:52;;;;;;;0.50;0.50;;;;;;;9.11;75.42;96881.72;29439;254;63015;-58
2022/12/26 02:13:24;;;;;;;0.50;0.50;;;;;;;9.08;75.21;96879.59;29395;225;63009;-59
2022/12/26 02:13:56;;;;;;;0.70;0.70;;;;;;;9.11;75.47;96881.72;29395;286;63004;-59
2022/12/26 02:14:29;;;;;;;0.50;0.50;;;;;;;9.09;75.48;96881.19;29394;244;64013;-59
2022/12/26 02:15:02;;;;;;;0.50;0.50;;;;;;;9.07;75.71;96875.25;29395;268;63004;-65
2022/12/26 02:15:34;;;;;;;0.50;0.50;;;;;;;9.05;75.45;96877.44;29395;216;63009;-59
2022/12/26 02:16:09;;;;;;;0.50;0.50;;;;;;;9.06;75.63;96879.88;29395;281;63005;-59
2022/12/26 02:16:42;;;;;;;0.60;0.60;;;;;;;9.10;75.46;96874.69;29395;220;63009;-60
2022/12/26 02:17:13;;;;;;;0.50;0.50;;;;;;;9.14;75.37;96870.34;29395;208;63005;-59
2022/12/26 02:17:44;;;;;;;1.33;1.33;;;;;;;9.16;75.13;96870.88;29395;214;63009;-59
2022/12/26 02:18:15;;;;;;;0.50;0.50;;;;;;;9.17;75.30;96875.19;29395;256;63005;-60
2022/12/26 02:18:46;;;;;;;1.45;1.35;;;;;;;9.16;74.90;96868.16;29395;242;63009;-59
2022/12/26 02:20:04;;;;;;;0.50;0.50;;;;;;;9.15;74.97;96881.97;29395;222;63005;-58
2022/12/26 02:21:26;;;;;;;0.50;0.50;;;;;;;9.10;75.19;96876.59;29394;218;64013;-61
2022/12/26 02:22:48;;;;;;;0.50;0.50;;;;;;;9.17;75.18;96877.91;29395;222;63004;-59
2022/12/26 02:24:17;;;;;;;0.55;0.55;;;;;;;9.08;75.39;96882.28;29417;211;63021;-59
2022/12/26 02:25:25;;;;;;;0.50;0.50;;;;;;;9.09;75.63;96870.38;29395;199;63005;-60
2022/12/26 02:26:24;;;;;;;0.70;0.70;;;;;;;9.19;74.81;96872.19;29394;203;64009;-63
2022/12/26 02:27:39;;;;;;;0.60;0.60;;;;;;;9.22;74.90;96872.44;29395;219;63009;-60
2022/12/26 02:28:59;;;;;;;0.60;0.60;;;;;;;9.22;74.87;96872.44;29395;293;63009;-62
2022/12/26 02:30:12;;;;;;;0.60;0.60;;;;;;;9.29;74.60;96874.81;29395;221;63004;-60
2022/12/26 02:31:13;;;;;;;0.50;0.50;;;;;;;9.25;74.75;96871.88;29395;215;63009;-59
2022/12/26 02:32:41;;;;;;;0.60;0.60;;;;;;;9.26;74.40;96876.19;29394;341;64009;-59
2022/12/26 02:33:55;;;;;;;0.52;0.52;;;;;;;9.18;74.87;96876.00;29395;220;63009;-58
2022/12/26 02:34:52;;;;;;;0.50;0.50;;;;;;;9.18;75.39;96894.94;29395;215;63017;-60
2022/12/26 02:35:49;;;;;;;0.60;0.60;;;;;;;9.16;75.01;96889.81;29395;282;63009;-60
2022/12/26 02:36:59;;;;;;;0.50;0.50;;;;;;;9.11;75.33;96897.97;29395;234;63004;-59
2022/12/26 02:38:32;;;;;;;0.50;0.50;;;;;;;9.04;75.89;96897.47;29394;233;64013;-60
2022/12/26 02:39:45;;;;;;;0.60;0.60;;;;;;;9.12;75.26;96899.59;29417;293;63005;-59
2022/12/26 02:40:54;;;;;;;0.50;0.50;;;;;;;9.13;75.51;96897.69;29395;223;63009;-60
2022/12/26 02:41:45;;;;;;;0.50;0.50;;;;;;;9.13;75.69;96895.78;29395;295;63004;-58
2022/12/26 02:43:46;;;;;;;0.57;0.57;;;;;;;9.13;75.89;96906.63;88174;228;64005;-61
2022/12/26 02:47:04;;;;;;;0.60;0.60;;;;;;;9.17;75.63;96891.44;29395;347;63008;-60
2022/12/26 02:47:56;;;;;;;0.50;0.50;;;;;;;9.26;75.31;96899.75;29395;202;63005;-61
2022/12/26 02:49:15;;;;;;;0.60;0.60;;;;;;;9.24;75.47;96901.94;29395;300;63009;-60
2022/12/26 03:13:41;;;;;;;0.50;0.50;;;;;;;9.32;75.29;96901.34;29395;233;63009;-59
2022/12/26 03:14:22;;;;;;;0.60;0.60;;;;;;;9.27;75.62;96902.19;29394;208;64009;-61
2022/12/26 03:14:59;;;;;;;0.60;0.60;;;;;;;9.31;75.43;96897.81;29417;222;63009;-59
2022/12/26 03:17:18;;;;;;;0.50;0.50;;;;;;;9.33;75.37;96895.62;29395;197;63004;-66
2022/12/26 03:17:31;;;;;;;0.60;0.60;;;;;;;9.46;74.90;96904.97;29438;262;64009;-58
2022/12/26 03:18:07;;;;;;;0.60;0.60;;;;;;;9.41;74.97;96905.81;29371;268;64013;-59
2022/12/26 03:18:43;;;;;;;0.50;0.50;;;;;;;9.37;75.38;96896.66;29395;237;63005;-58
2022/12/26 03:19:14;;;;;;;0.60;0.60;;;;;;;9.35;75.31;96896.16;29395;278;63009;-60
2022/12/26 03:19:59;;;;;;;0.50;0.50;;;;;;;9.38;75.08;96900.97;29395;218;63005;-61
2022/12/26 03:20:34;;;;;;;0.50;0.50;;;;;;;9.35;75.12;96898.87;29395;225;63009;-59
2022/12/26 03:21:09;;;;;;;0.50;0.50;;;;;;;9.31;75.50;96895.09;29395;266;63004;-59
2022/12/26 03:21:44;;;;;;;0.50;0.50;;;;;;;9.30;75.44;96896.19;29394;197;64013;-58
2022/12/26 03:22:29;;;;;;;0.50;0.50;;;;;;;9.29;75.73;96893.78;29395;197;63004;-58
2022/12/26 03:23:05;;;;;;;0.50;0.50;;;;;;;9.34;75.31;96893.72;29394;206;64013;-59
2022/12/26 03:23:41;;;;;;;0.50;0.50;;;;;;;9.38;75.35;96895.56;29395;212;63004;-58
2022/12/26 03:24:16;;;;;;;0.50;0.50;;;;;;;9.38;75.43;96892.84;29394;267;64014;-57
2022/12/26 03:26:53;;;;;;;0.57;0.57;;;;;;;9.27;75.84;96885.94;29395;220;63005;-58
2022/12/26 03:27:24;;;;;;;0.50;0.50;;;;;;;9.25;76.62;96884.59;29395;247;63009;-60
2022/12/26 03:27:56;;;;;;;0.50;0.50;;;;;;;9.23;76.47;96884.06;29395;231;63007;-61
2022/12/26 03:28:28;;;;;;;0.50;0.50;;;;;;;9.26;76.26;96888.94;29394;249;64013;-71